Etusivu
METAR-TAF:

METAR-TAF

Lentoasemat :

Tripoli, Libya

Mitiga International Airport

Leveyspiiri: 32-54N, Pituuspiiri: 13-17E, korkeus merenpinnasta: 11 m

Tämänhetkinen sää

Tämä raportti tehtiin 29 minuuttia sitten, kello 10.50 UTC
Tuuli 4 kn kaakosta
Lämpötila 23°C
Kosteus 41%
Ilmanpaine 1020 hPa
Näkyvyys: 8000 m
Hajanaisia pilviä 2500 ft:n korkeudessa
Hajanaisia pilviä 8000 ft:n korkeudessa

METAR: HLLM 231050Z 14004KT 8000 SCT025 SCT080 23/09 Q1020

Aika: 13:19 (11:19 UTC)

Sääennuste

Tämä raportti tehtiin 6 tuntia ja 19 minuuttia sitten, kello 05.00 UTC
Ennuste voimassa 23. päivästä klo 06 UTC - 24. päivään klo 06 UTC
Tuuli 8 kn etelästä/kaakosta
Näkyvyys: 8000 m
Hajanaisia pilviä 2500 ft:n korkeudessa
Hajanaisia pilviä 7000 ft:n korkeudessa

TAF: HLLM 230500Z 2306/2406 16008KT 8000 SCT025 SCT070

Säähavainnot ja -ennusteet yli 4000 lentoasemalta (METAR- ja TAF-raportit).

Käytössä olevat sääasemat on merkitty karttaan keltaisilla ja punaisilla pisteillä.

Aseta hiiri pisteen päälle nähdäksesi sääaseman nimen.

Klikkaa sitten nähdäksesi säähavainnot ja -ennusteet.

Kartan vaihtaminen: klikkaa mustalla rastilla varustettuja vihreitä pisteitä, niin voit zoomata sisään; viivalla varustettua vihreää pistettä, niin voit zoomata ulos tai vihreitä nuolia, niin pääset viereisille kartoille.


METAR-TAF: